sensor_id;sensor_type;location;lat;lon;timestamp;pressure;altitude;pressure_sealevel;temperature;humidity
70921;BME280;58572;48.110;19.838;2022-12-26T00:02:12;98281.34;;;5.97;85.03
70921;BME280;58572;48.110;19.838;2022-12-26T00:04:39;98355.34;;;6.63;85.36
70921;BME280;58572;48.110;19.838;2022-12-26T00:07:06;98348.56;;;6.44;84.91
70921;BME280;58572;48.110;19.838;2022-12-26T00:09:35;98333.69;;;6.96;83.42
70921;BME280;58572;48.110;19.838;2022-12-26T00:12:02;98301.84;;;6.43;83.90
70921;BME280;58572;48.110;19.838;2022-12-26T00:14:30;98255.59;;;6.39;83.66
70921;BME280;58572;48.110;19.838;2022-12-26T00:16:57;98212.63;;;5.88;83.89
70921;BME280;58572;48.110;19.838;2022-12-26T00:19:24;98337.59;;;7.05;82.47
70921;BME280;58572;48.110;19.838;2022-12-26T00:21:51;98344.50;;;6.96;83.00
70921;BME280;58572;48.110;19.838;2022-12-26T00:24:19;98072.09;;;5.05;83.36
70921;BME280;58572;48.110;19.838;2022-12-26T00:26:49;98344.72;;;6.56;84.92
70921;BME280;58572;48.110;19.838;2022-12-26T00:29:16;98332.75;;;7.08;82.52
70921;BME280;58572;48.110;19.838;2022-12-26T00:31:43;98344.22;;;6.43;85.24
70921;BME280;58572;48.110;19.838;2022-12-26T00:34:11;98217.66;;;5.96;83.63
70921;BME280;58572;48.110;19.838;2022-12-26T00:36:38;98345.13;;;6.65;85.51
70921;BME280;58572;48.110;19.838;2022-12-26T00:39:05;98292.00;;;6.20;85.12
70921;BME280;58572;48.110;19.838;2022-12-26T00:41:33;98350.25;;;6.83;83.18
70921;BME280;58572;48.110;19.838;2022-12-26T00:44:02;98341.69;;;7.08;82.33
70921;BME280;58572;48.110;19.838;2022-12-26T00:46:29;98340.28;;;6.67;83.96
70921;BME280;58572;48.110;19.838;2022-12-26T00:48:56;98337.97;;;6.92;84.09
70921;BME280;58572;48.110;19.838;2022-12-26T00:51:23;98333.56;;;6.69;84.57
70921;BME280;58572;48.110;19.838;2022-12-26T00:53:50;98326.44;;;6.80;84.05
70921;BME280;58572;48.110;19.838;2022-12-26T00:56:19;98305.50;;;6.54;84.37
70921;BME280;58572;48.110;19.838;2022-12-26T00:58:46;98159.50;;;5.71;83.99
70921;BME280;58572;48.110;19.838;2022-12-26T01:01:17;98323.94;;;6.95;83.55
70921;BME280;58572;48.110;19.838;2022-12-26T01:03:45;98329.28;;;6.90;83.95
70921;BME280;58572;48.110;19.838;2022-12-26T01:06:13;98336.50;;;6.85;83.45
70921;BME280;58572;48.110;19.838;2022-12-26T01:08:40;98258.94;;;6.47;83.85
70921;BME280;58572;48.110;19.838;2022-12-26T01:11:09;98310.50;;;7.00;81.95
70921;BME280;58572;48.110;19.838;2022-12-26T01:13:37;98094.22;;;5.07;84.85
70921;BME280;58572;48.110;19.838;2022-12-26T01:16:05;98312.78;;;6.70;83.80
70921;BME280;58572;48.110;19.838;2022-12-26T01:18:34;98313.75;;;6.81;83.30
70921;BME280;58572;48.110;19.838;2022-12-26T01:21:05;98306.88;;;6.73;83.57
70921;BME280;58572;48.110;19.838;2022-12-26T01:23:32;98148.38;;;5.85;83.91
70921;BME280;58572;48.110;19.838;2022-12-26T01:26:00;98307.66;;;6.90;82.00
70921;BME280;58572;48.110;19.838;2022-12-26T01:28:27;98308.34;;;6.64;83.83
70921;BME280;58572;48.110;19.838;2022-12-26T01:30:55;98306.41;;;6.59;84.67
70921;BME280;58572;48.110;19.838;2022-12-26T01:33:22;98302.56;;;6.38;84.68
70921;BME280;58572;48.110;19.838;2022-12-26T01:35:52;98305.34;;;6.60;85.07
70921;BME280;58572;48.110;19.838;2022-12-26T01:38:19;98295.72;;;6.86;83.65
70921;BME280;58572;48.110;19.838;2022-12-26T01:40:48;98243.53;;;6.64;82.76
70921;BME280;58572;48.110;19.838;2022-12-26T01:43:50;98288.97;;;6.67;83.45
70921;BME280;58572;48.110;19.838;2022-12-26T01:46:19;98287.53;;;6.81;82.59
70921;BME280;58572;48.110;19.838;2022-12-26T01:48:48;98285.59;;;6.77;82.41
70921;BME280;58572;48.110;19.838;2022-12-26T01:51:18;98281.56;;;6.79;83.18
70921;BME280;58572;48.110;19.838;2022-12-26T01:53:50;98283.53;;;6.84;82.40
70921;BME280;58572;48.110;19.838;2022-12-26T01:56:21;98278.41;;;6.65;83.97
70921;BME280;58572;48.110;19.838;2022-12-26T01:58:53;98247.50;;;6.78;82.49
70921;BME280;58572;48.110;19.838;2022-12-26T02:01:25;98165.53;;;5.78;83.96
70921;BME280;58572;48.110;19.838;2022-12-26T02:03:54;98287.25;;;6.61;82.83
70921;BME280;58572;48.110;19.838;2022-12-26T02:06:41;98271.81;;;6.78;83.32
70921;BME280;58572;48.110;19.838;2022-12-26T02:09:09;98289.16;;;6.82;83.41
70921;BME280;58572;48.110;19.838;2022-12-26T02:11:40;98287.56;;;6.64;83.35
70921;BME280;58572;48.110;19.838;2022-12-26T02:14:09;98287.94;;;6.34;85.13
70921;BME280;58572;48.110;19.838;2022-12-26T02:16:37;98277.63;;;6.31;84.96
70921;BME280;58572;48.110;19.838;2022-12-26T02:19:13;98284.66;;;6.49;83.88
70921;BME280;58572;48.110;19.838;2022-12-26T02:22:14;98231.66;;;6.26;83.95
70921;BME280;58572;48.110;19.838;2022-12-26T02:25:14;98273.66;;;6.56;84.28
70921;BME280;58572;48.110;19.838;2022-12-26T02:28:01;98174.22;;;5.97;83.79
70921;BME280;58572;48.110;19.838;2022-12-26T02:30:42;98187.97;;;5.96;84.71
70921;BME280;58572;48.110;19.838;2022-12-26T02:33:36;98276.56;;;6.32;85.06
70921;BME280;58572;48.110;19.838;2022-12-26T02:36:19;98212.31;;;6.01;84.82
70921;BME280;58572;48.110;19.838;2022-12-26T02:39:00;98272.53;;;6.35;84.81
70921;BME280;58572;48.110;19.838;2022-12-26T02:41:40;98274.91;;;6.31;85.46
70921;BME280;58572;48.110;19.838;2022-12-26T02:44:19;98270.88;;;6.17;85.56
70921;BME280;58572;48.110;19.838;2022-12-26T02:47:10;98268.38;;;6.27;85.15
70921;BME280;58572;48.110;19.838;2022-12-26T02:49:49;98266.38;;;6.23;85.80
70921;BME280;58572;48.110;19.838;2022-12-26T02:52:44;98264.69;;;6.33;84.70
70921;BME280;58572;48.110;19.838;2022-12-26T02:55:34;98260.41;;;6.21;85.67
70921;BME280;58572;48.110;19.838;2022-12-26T02:58:23;98196.28;;;5.77;85.50
70921;BME280;58572;48.110;19.838;2022-12-26T03:01:18;98188.66;;;5.74;85.30
70921;BME280;58572;48.110;19.838;2022-12-26T03:04:09;98266.25;;;6.29;85.04
70921;BME280;58572;48.110;19.838;2022-12-26T03:06:59;98256.25;;;6.13;85.45
70921;BME280;58572;48.110;19.838;2022-12-26T03:09:47;98257.31;;;6.12;85.40
70921;BME280;58572;48.110;19.838;2022-12-26T03:12:38;98230.16;;;6.02;85.75
70921;BME280;58572;48.110;19.838;2022-12-26T03:15:25;98215.94;;;5.90;85.67
70921;BME280;58572;48.110;19.838;2022-12-26T03:17:56;98203.97;;;5.86;85.45
70921;BME280;58572;48.110;19.838;2022-12-26T03:20:28;98270.25;;;6.27;84.90
70921;BME280;58572;48.110;19.838;2022-12-26T03:23:00;98239.25;;;6.29;84.93
70921;BME280;58572;48.110;19.838;2022-12-26T03:25:36;98268.13;;;6.46;84.33
70921;BME280;58572;48.110;19.838;2022-12-26T03:28:22;98271.00;;;6.78;83.53
70921;BME280;58572;48.110;19.838;2022-12-26T03:30:50;98268.88;;;6.80;83.61
70921;BME280;58572;48.110;19.838;2022-12-26T03:33:17;98226.19;;;7.03;80.15
70921;BME280;58572;48.110;19.838;2022-12-26T03:36:04;98263.34;;;7.57;79.71
70921;BME280;58572;48.110;19.838;2022-12-26T03:38:34;98266.41;;;7.65;79.11
70921;BME280;58572;48.110;19.838;2022-12-26T03:41:23;98262.56;;;7.34;80.07
70921;BME280;58572;48.110;19.838;2022-12-26T03:44:18;98261.19;;;7.32;79.95
70921;BME280;58572;48.110;19.838;2022-12-26T03:47:19;98261.69;;;7.29;80.40
70921;BME280;58572;48.110;19.838;2022-12-26T03:50:14;98207.47;;;6.75;80.81
70921;BME280;58572;48.110;19.838;2022-12-26T03:53:09;98263.03;;;7.53;79.55
70921;BME280;58572;48.110;19.838;2022-12-26T03:55:59;98267.94;;;7.13;80.31
70921;BME280;58572;48.110;19.838;2022-12-26T03:58:50;98263.66;;;6.95;81.65
70921;BME280;58572;48.110;19.838;2022-12-26T04:01:38;98258.50;;;6.93;81.74
70921;BME280;58572;48.110;19.838;2022-12-26T04:04:26;98195.22;;;6.67;80.91
70921;BME280;58572;48.110;19.838;2022-12-26T04:07:15;98261.94;;;6.67;81.93
70921;BME280;58572;48.110;19.838;2022-12-26T04:10:06;98266.50;;;6.28;83.21
70921;BME280;58572;48.110;19.838;2022-12-26T04:12:52;98252.00;;;6.34;84.15
70921;BME280;58572;48.110;19.838;2022-12-26T04:15:41;98233.28;;;6.66;81.89
70921;BME280;58572;48.110;19.838;2022-12-26T04:18:32;98253.88;;;6.17;84.43
70921;BME280;58572;48.110;19.838;2022-12-26T04:21:21;98239.81;;;6.31;83.63
70921;BME280;58572;48.110;19.838;2022-12-26T04:24:14;98240.56;;;6.65;83.38
70921;BME280;58572;48.110;19.838;2022-12-26T04:27:03;98240.69;;;6.54;82.83
70921;BME280;58572;48.110;19.838;2022-12-26T04:29:50;98242.81;;;7.34;79.69
70921;BME280;58572;48.110;19.838;2022-12-26T04:32:38;98233.06;;;7.33;79.31
70921;BME280;58572;48.110;19.838;2022-12-26T04:35:27;98181.94;;;7.10;78.00
70921;BME280;58572;48.110;19.838;2022-12-26T04:38:17;98219.09;;;7.41;79.40
70921;BME280;58572;48.110;19.838;2022-12-26T04:41:05;98220.63;;;6.50;81.58
70921;BME280;58572;48.110;19.838;2022-12-26T04:43:54;98239.47;;;6.11;82.35
70921;BME280;58572;48.110;19.838;2022-12-26T04:46:38;98247.06;;;6.86;80.34
70921;BME280;58572;48.110;19.838;2022-12-26T04:49:08;98232.59;;;7.41;79.45
70921;BME280;58572;48.110;19.838;2022-12-26T04:51:54;98243.44;;;7.41;78.18
70921;BME280;58572;48.110;19.838;2022-12-26T04:54:22;98238.16;;;7.08;79.14
70921;BME280;58572;48.110;19.838;2022-12-26T04:56:49;98224.81;;;7.23;78.43
70921;BME280;58572;48.110;19.838;2022-12-26T04:59:19;98145.97;;;6.60;78.21
70921;BME280;58572;48.110;19.838;2022-12-26T05:01:46;98101.19;;;6.43;78.81
70921;BME280;58572;48.110;19.838;2022-12-26T05:04:31;98240.78;;;7.46;78.33
70921;BME280;58572;48.110;19.838;2022-12-26T05:07:17;98247.25;;;7.01;79.16
70921;BME280;58572;48.110;19.838;2022-12-26T05:10:04;98247.91;;;7.30;78.38
70921;BME280;58572;48.110;19.838;2022-12-26T05:12:33;98245.88;;;7.43;78.56
70921;BME280;58572;48.110;19.838;2022-12-26T05:15:02;98252.22;;;7.10;78.67
70921;BME280;58572;48.110;19.838;2022-12-26T05:17:30;98188.31;;;6.55;79.17
70921;BME280;58572;48.110;19.838;2022-12-26T05:20:15;98170.44;;;6.32;81.10
70921;BME280;58572;48.110;19.838;2022-12-26T05:23:01;98249.78;;;6.48;80.74
70921;BME280;58572;48.110;19.838;2022-12-26T05:25:46;98133.16;;;6.12;81.34
70921;BME280;58572;48.110;19.838;2022-12-26T05:28:34;98233.34;;;6.32;81.88
70921;BME280;58572;48.110;19.838;2022-12-26T05:31:16;98226.81;;;6.67;80.60
70921;BME280;58572;48.110;19.838;2022-12-26T05:33:44;98220.88;;;6.87;80.05
70921;BME280;58572;48.110;19.838;2022-12-26T05:36:30;98223.72;;;6.58;80.56
70921;BME280;58572;48.110;19.838;2022-12-26T05:38:58;98211.53;;;6.56;80.92
70921;BME280;58572;48.110;19.838;2022-12-26T05:41:26;98061.31;;;5.05;82.85
70921;BME280;58572;48.110;19.838;2022-12-26T05:43:53;98215.09;;;6.06;82.76
70921;BME280;58572;48.110;19.838;2022-12-26T05:46:23;98200.72;;;6.00;83.30
70921;BME280;58572;48.110;19.838;2022-12-26T05:48:50;98201.44;;;6.29;82.66
70921;BME280;58572;48.110;19.838;2022-12-26T05:51:17;98188.59;;;6.20;82.71
70921;BME280;58572;48.110;19.838;2022-12-26T05:53:45;98202.19;;;5.91;83.98
70921;BME280;58572;48.110;19.838;2022-12-26T05:56:14;98202.34;;;6.18;82.60
70921;BME280;58572;48.110;19.838;2022-12-26T05:58:42;98204.28;;;6.39;81.37
70921;BME280;58572;48.110;19.838;2022-12-26T06:01:10;98192.19;;;6.42;80.92
70921;BME280;58572;48.110;19.838;2022-12-26T06:03:41;98193.75;;;5.88;83.05
70921;BME280;58572;48.110;19.838;2022-12-26T06:06:09;98198.16;;;6.66;81.24
70921;BME280;58572;48.110;19.838;2022-12-26T06:08:36;98174.88;;;6.60;81.21
70921;BME280;58572;48.110;19.838;2022-12-26T06:11:05;98182.19;;;6.43;81.88
70921;BME280;58572;48.110;19.838;2022-12-26T06:13:33;98148.28;;;6.52;80.80
70921;BME280;58572;48.110;19.838;2022-12-26T06:16:03;98188.91;;;6.23;81.21
70921;BME280;58572;48.110;19.838;2022-12-26T06:18:30;98184.78;;;5.99;83.10
70921;BME280;58572;48.110;19.838;2022-12-26T06:20:59;98103.25;;;5.97;80.22
70921;BME280;58572;48.110;19.838;2022-12-26T06:23:29;98194.81;;;6.20;81.68
70921;BME280;58572;48.110;19.838;2022-12-26T06:25:56;98196.91;;;5.51;83.61
70921;BME280;58572;48.110;19.838;2022-12-26T06:28:24;98202.31;;;5.85;84.07
70921;BME280;58572;48.110;19.838;2022-12-26T06:30:52;98206.31;;;5.65;83.89
70921;BME280;58572;48.110;19.838;2022-12-26T06:33:19;98198.88;;;5.72;83.80
70921;BME280;58572;48.110;19.838;2022-12-26T06:35:46;98151.88;;;5.35;82.60
70921;BME280;58572;48.110;19.838;2022-12-26T06:38:15;98208.53;;;5.68;82.73
70921;BME280;58572;48.110;19.838;2022-12-26T06:40:43;98212.88;;;5.12;85.33
70921;BME280;58572;48.110;19.838;2022-12-26T06:43:10;98213.00;;;5.63;83.82
70921;BME280;58572;48.110;19.838;2022-12-26T06:45:38;98221.25;;;5.56;84.16
70921;BME280;58572;48.110;19.838;2022-12-26T06:48:05;98221.31;;;5.90;82.77
70921;BME280;58572;48.110;19.838;2022-12-26T06:50:34;98220.56;;;5.77;83.85
70921;BME280;58572;48.110;19.838;2022-12-26T06:53:02;98204.28;;;5.72;83.42
70921;BME280;58572;48.110;19.838;2022-12-26T06:55:30;98202.75;;;6.10;82.90
70921;BME280;58572;48.110;19.838;2022-12-26T06:57:58;98187.47;;;5.99;81.22
70921;BME280;58572;48.110;19.838;2022-12-26T07:00:25;98136.44;;;5.47;82.19
70921;BME280;58572;48.110;19.838;2022-12-26T07:02:52;97967.09;;;5.10;80.88
70921;BME280;58572;48.110;19.838;2022-12-26T07:05:19;98227.53;;;6.79;79.62
70921;BME280;58572;48.110;19.838;2022-12-26T07:07:49;98234.91;;;6.28;80.94
70921;BME280;58572;48.110;19.838;2022-12-26T07:10:17;98234.97;;;6.17;81.20
70921;BME280;58572;48.110;19.838;2022-12-26T07:12:47;98239.41;;;6.06;82.06
70921;BME280;58572;48.110;19.838;2022-12-26T07:15:14;98234.06;;;6.45;80.17
70921;BME280;58572;48.110;19.838;2022-12-26T07:17:41;98197.41;;;6.92;77.66
70921;BME280;58572;48.110;19.838;2022-12-26T07:20:09;98238.00;;;7.41;77.62
70921;BME280;58572;48.110;19.838;2022-12-26T07:22:37;98231.09;;;7.07;77.73
70921;BME280;58572;48.110;19.838;2022-12-26T07:25:04;98237.75;;;7.21;77.23
70921;BME280;58572;48.110;19.838;2022-12-26T07:27:32;98236.44;;;7.45;76.62
70921;BME280;58572;48.110;19.838;2022-12-26T07:30:01;98190.09;;;7.15;76.28
70921;BME280;58572;48.110;19.838;2022-12-26T07:32:28;98161.53;;;6.75;77.10
70921;BME280;58572;48.110;19.838;2022-12-26T07:34:55;98250.63;;;7.30;78.31
70921;BME280;58572;48.110;19.838;2022-12-26T07:37:22;98256.19;;;7.46;76.31
70921;BME280;58572;48.110;19.838;2022-12-26T07:39:50;98250.56;;;7.52;76.97
70921;BME280;58572;48.110;19.838;2022-12-26T07:42:19;98252.97;;;7.76;76.11
70921;BME280;58572;48.110;19.838;2022-12-26T07:44:46;98151.88;;;6.79;76.45
70921;BME280;58572;48.110;19.838;2022-12-26T07:47:15;98222.25;;;7.33;76.33
70921;BME280;58572;48.110;19.838;2022-12-26T07:49:42;98100.13;;;6.44;76.77
70921;BME280;58572;48.110;19.838;2022-12-26T07:52:09;98232.09;;;7.44;76.26
70921;BME280;58572;48.110;19.838;2022-12-26T07:54:36;98257.31;;;7.06;78.48
70921;BME280;58572;48.110;19.838;2022-12-26T07:57:05;98258.75;;;7.57;76.81
70921;BME280;58572;48.110;19.838;2022-12-26T07:59:33;98024.81;;;6.03;76.57
70921;BME280;58572;48.110;19.838;2022-12-26T08:02:00;98270.47;;;7.41;76.80
70921;BME280;58572;48.110;19.838;2022-12-26T08:04:31;98186.88;;;7.40;75.48
70921;BME280;58572;48.110;19.838;2022-12-26T08:06:58;98166.22;;;7.28;75.09
70921;BME280;58572;48.110;19.838;2022-12-26T08:09:25;98017.66;;;6.14;76.35
70921;BME280;58572;48.110;19.838;2022-12-26T08:11:53;98162.34;;;6.97;76.08
70921;BME280;58572;48.110;19.838;2022-12-26T08:14:20;98245.31;;;7.67;76.27
70921;BME280;58572;48.110;19.838;2022-12-26T08:16:47;98246.69;;;7.70;75.89
70921;BME280;58572;48.110;19.838;2022-12-26T08:19:14;98254.25;;;7.41;77.36
70921;BME280;58572;48.110;19.838;2022-12-26T08:21:43;98271.50;;;7.35;77.08
70921;BME280;58572;48.110;19.838;2022-12-26T08:24:10;98276.31;;;7.55;76.98
70921;BME280;58572;48.110;19.838;2022-12-26T08:26:37;98261.41;;;7.79;75.76
70921;BME280;58572;48.110;19.838;2022-12-26T08:29:05;98263.78;;;7.27;77.38
70921;BME280;58572;48.110;19.838;2022-12-26T08:31:32;98274.63;;;6.66;80.96
70921;BME280;58572;48.110;19.838;2022-12-26T08:33:59;98275.44;;;6.67;81.55
70921;BME280;58572;48.110;19.838;2022-12-26T08:36:26;98272.16;;;7.03;79.13
70921;BME280;58572;48.110;19.838;2022-12-26T08:38:56;98279.19;;;7.26;78.63
70921;BME280;58572;48.110;19.838;2022-12-26T08:41:23;98271.09;;;7.48;77.59
70921;BME280;58572;48.110;19.838;2022-12-26T08:43:51;98268.63;;;7.47;77.28
70921;BME280;58572;48.110;19.838;2022-12-26T08:46:19;98275.75;;;7.31;78.22
70921;BME280;58572;48.110;19.838;2022-12-26T08:48:47;98284.03;;;7.24;79.17
70921;BME280;58572;48.110;19.838;2022-12-26T08:51:16;98271.72;;;7.55;77.14
70921;BME280;58572;48.110;19.838;2022-12-26T08:53:43;98281.25;;;7.90;75.91
70921;BME280;58572;48.110;19.838;2022-12-26T08:56:15;98278.34;;;7.69;77.87
70921;BME280;58572;48.110;19.838;2022-12-26T08:58:43;98286.09;;;7.61;77.37
70921;BME280;58572;48.110;19.838;2022-12-26T09:01:12;98268.19;;;6.89;78.42
70921;BME280;58572;48.110;19.838;2022-12-26T09:03:40;98224.81;;;7.01;77.62
70921;BME280;58572;48.110;19.838;2022-12-26T09:06:08;98269.56;;;7.57;76.95
70921;BME280;58572;48.110;19.838;2022-12-26T09:08:36;98268.59;;;7.68;76.97
70921;BME280;58572;48.110;19.838;2022-12-26T09:11:04;98269.53;;;7.79;77.49
70921;BME280;58572;48.110;19.838;2022-12-26T09:13:33;98269.06;;;7.60;77.87
70921;BME280;58572;48.110;19.838;2022-12-26T09:16:11;98282.34;;;6.96;81.12
70921;BME280;58572;48.110;19.838;2022-12-26T09:18:38;98278.66;;;7.46;78.14
70921;BME280;58572;48.110;19.838;2022-12-26T09:21:08;98274.06;;;7.47;78.54
70921;BME280;58572;48.110;19.838;2022-12-26T09:23:36;98269.28;;;7.32;77.90
70921;BME280;58572;48.110;19.838;2022-12-26T09:26:05;98269.34;;;7.37;78.47
70921;BME280;58572;48.110;19.838;2022-12-26T09:28:35;98269.56;;;7.57;77.94
70921;BME280;58572;48.110;19.838;2022-12-26T09:31:04;98259.84;;;7.34;78.47
70921;BME280;58572;48.110;19.838;2022-12-26T09:33:33;98254.56;;;7.45;79.32
70921;BME280;58572;48.110;19.838;2022-12-26T09:36:04;98251.69;;;7.56;78.22
70921;BME280;58572;48.110;19.838;2022-12-26T09:38:31;98250.16;;;7.92;77.58
70921;BME280;58572;48.110;19.838;2022-12-26T09:41:01;98251.44;;;8.17;76.27
70921;BME280;58572;48.110;19.838;2022-12-26T09:43:45;98251.75;;;8.20;75.65
70921;BME280;58572;48.110;19.838;2022-12-26T09:46:20;98230.69;;;7.95;76.48
70921;BME280;58572;48.110;19.838;2022-12-26T09:48:55;98257.16;;;7.88;77.96
70921;BME280;58572;48.110;19.838;2022-12-26T09:51:24;98263.38;;;7.89;77.89
70921;BME280;58572;48.110;19.838;2022-12-26T09:53:53;98201.28;;;7.45;78.26
70921;BME280;58572;48.110;19.838;2022-12-26T09:56:22;98238.63;;;7.75;77.52
70921;BME280;58572;48.110;19.838;2022-12-26T09:58:54;98237.25;;;8.05;77.04
70921;BME280;58572;48.110;19.838;2022-12-26T10:01:24;98249.16;;;8.04;77.53
70921;BME280;58572;48.110;19.838;2022-12-26T10:03:53;98249.28;;;8.19;76.95
70921;BME280;58572;48.110;19.838;2022-12-26T10:06:23;98225.34;;;7.74;77.61
70921;BME280;58572;48.110;19.838;2022-12-26T10:09:03;98189.63;;;8.09;76.10
70921;BME280;58572;48.110;19.838;2022-12-26T10:11:40;98167.13;;;8.03;76.07
70921;BME280;58572;48.110;19.838;2022-12-26T10:14:17;98237.31;;;8.10;77.55
70921;BME280;58572;48.110;19.838;2022-12-26T10:16:53;98234.28;;;8.33;76.61
70921;BME280;58572;48.110;19.838;2022-12-26T10:19:31;98236.03;;;8.22;76.28
70921;BME280;58572;48.110;19.838;2022-12-26T10:22:21;98228.88;;;8.06;77.97
70921;BME280;58572;48.110;19.838;2022-12-26T10:24:54;98215.38;;;8.38;76.00
70921;BME280;58572;48.110;19.838;2022-12-26T10:27:26;98214.81;;;8.83;74.89
70921;BME280;58572;48.110;19.838;2022-12-26T10:29:58;98228.44;;;9.04;75.65
70921;BME280;58572;48.110;19.838;2022-12-26T10:32:32;98218.47;;;8.57;75.86
70921;BME280;58572;48.110;19.838;2022-12-26T10:35:20;98220.88;;;8.21;76.89
70921;BME280;58572;48.110;19.838;2022-12-26T10:37:49;98126.47;;;7.98;75.99
70921;BME280;58572;48.110;19.838;2022-12-26T10:40:20;98214.53;;;8.38;77.25
70921;BME280;58572;48.110;19.838;2022-12-26T10:42:51;98214.25;;;8.81;76.29
70921;BME280;58572;48.110;19.838;2022-12-26T10:45:24;98206.22;;;8.17;77.60
70921;BME280;58572;48.110;19.838;2022-12-26T10:47:55;98218.50;;;8.67;76.07
70921;BME280;58572;48.110;19.838;2022-12-26T10:50:25;98209.47;;;8.51;76.92
70921;BME280;58572;48.110;19.838;2022-12-26T10:52:54;98197.66;;;8.30;77.39
70921;BME280;58572;48.110;19.838;2022-12-26T10:55:25;98106.84;;;8.18;76.46
70921;BME280;58572;48.110;19.838;2022-12-26T10:57:53;98201.34;;;9.04;75.07
70921;BME280;58572;48.110;19.838;2022-12-26T11:00:25;98209.38;;;8.83;75.59
70921;BME280;58572;48.110;19.838;2022-12-26T11:03:07;98214.38;;;8.22;78.87
70921;BME280;58572;48.110;19.838;2022-12-26T11:05:36;98161.00;;;8.18;77.63
70921;BME280;58572;48.110;19.838;2022-12-26T11:08:07;98218.44;;;8.52;77.29
70921;BME280;58572;48.110;19.838;2022-12-26T11:10:35;98139.50;;;8.01;77.38
70921;BME280;58572;48.110;19.838;2022-12-26T11:13:05;98216.66;;;8.73;76.33
70921;BME280;58572;48.110;19.838;2022-12-26T11:15:38;98127.75;;;8.27;76.32
70921;BME280;58572;48.110;19.838;2022-12-26T11:18:14;98155.06;;;7.84;78.14
70921;BME280;58572;48.110;19.838;2022-12-26T11:20:43;98137.28;;;7.93;77.93
70921;BME280;58572;48.110;19.838;2022-12-26T11:23:25;98211.84;;;8.38;78.31
70921;BME280;58572;48.110;19.838;2022-12-26T11:25:57;98203.19;;;8.41;78.24
70921;BME280;58572;48.110;19.838;2022-12-26T11:28:28;98183.56;;;7.91;79.29
70921;BME280;58572;48.110;19.838;2022-12-26T11:30:59;98198.06;;;8.44;77.76
70921;BME280;58572;48.110;19.838;2022-12-26T11:33:29;98195.97;;;8.56;77.40
70921;BME280;58572;48.110;19.838;2022-12-26T11:36:05;98129.91;;;8.25;76.91
70921;BME280;58572;48.110;19.838;2022-12-26T11:38:44;98167.47;;;8.49;78.15
70921;BME280;58572;48.110;19.838;2022-12-26T11:41:15;98093.19;;;8.40;76.31
70921;BME280;58572;48.110;19.838;2022-12-26T11:44:04;98166.09;;;9.09;75.23
70921;BME280;58572;48.110;19.838;2022-12-26T11:46:40;98139.47;;;8.95;75.43
70921;BME280;58572;48.110;19.838;2022-12-26T11:49:16;98167.19;;;9.18;75.42
70921;BME280;58572;48.110;19.838;2022-12-26T11:51:47;98037.38;;;8.39;76.06
70921;BME280;58572;48.110;19.838;2022-12-26T11:54:24;98166.97;;;9.29;75.10
70921;BME280;58572;48.110;19.838;2022-12-26T11:57:08;98172.88;;;9.06;75.26
70921;BME280;58572;48.110;19.838;2022-12-26T11:59:37;98165.69;;;8.70;77.23
70921;BME280;58572;48.110;19.838;2022-12-26T12:04:48;98158.56;;;9.31;75.05
70921;BME280;58572;48.110;19.838;2022-12-26T12:07:31;98153.19;;;9.46;74.36
70921;BME280;58572;48.110;19.838;2022-12-26T12:10:10;98152.56;;;9.24;75.20
70921;BME280;58572;48.110;19.838;2022-12-26T12:12:48;98148.28;;;9.48;75.49
70921;BME280;58572;48.110;19.838;2022-12-26T12:15:23;98147.22;;;9.44;74.59
70921;BME280;58572;48.110;19.838;2022-12-26T12:18:00;98148.22;;;9.18;75.63
70921;BME280;58572;48.110;19.838;2022-12-26T12:20:36;98083.47;;;8.44;77.20
70921;BME280;58572;48.110;19.838;2022-12-26T12:23:24;98151.28;;;9.52;75.52
70921;BME280;58572;48.110;19.838;2022-12-26T12:26:05;98147.09;;;9.04;76.28
70921;BME280;58572;48.110;19.838;2022-12-26T12:29:20;98147.13;;;9.14;75.93
70921;BME280;58572;48.110;19.838;2022-12-26T12:32:02;98140.66;;;9.30;75.91
70921;BME280;58572;48.110;19.838;2022-12-26T12:34:49;98148.81;;;9.40;75.32
70921;BME280;58572;48.110;19.838;2022-12-26T12:37:32;98144.50;;;9.59;74.67
70921;BME280;58572;48.110;19.838;2022-12-26T12:40:13;98154.47;;;9.28;75.40
70921;BME280;58572;48.110;19.838;2022-12-26T12:42:52;98160.38;;;9.05;76.72
70921;BME280;58572;48.110;19.838;2022-12-26T12:45:24;98073.81;;;8.78;76.38
70921;BME280;58572;48.110;19.838;2022-12-26T12:48:18;98150.69;;;9.35;75.91
70921;BME280;58572;48.110;19.838;2022-12-26T12:50:53;98098.22;;;8.78;76.29
70921;BME280;58572;48.110;19.838;2022-12-26T12:53:36;98145.06;;;9.72;74.69
70921;BME280;58572;48.110;19.838;2022-12-26T12:56:16;98156.59;;;9.11;76.63
70921;BME280;58572;48.110;19.838;2022-12-26T12:58:53;98148.50;;;9.21;75.80
70921;BME280;58572;48.110;19.838;2022-12-26T13:01:26;98055.44;;;8.28;76.78
70921;BME280;58572;48.110;19.838;2022-12-26T13:04:00;98142.72;;;8.92;77.24
70921;BME280;58572;48.110;19.838;2022-12-26T13:06:34;98144.13;;;9.15;76.58
70921;BME280;58572;48.110;19.838;2022-12-26T13:09:07;98142.22;;;9.11;76.41
70921;BME280;58572;48.110;19.838;2022-12-26T13:11:43;98136.28;;;9.14;75.82
70921;BME280;58572;48.110;19.838;2022-12-26T13:14:13;98138.44;;;9.12;76.47
70921;BME280;58572;48.110;19.838;2022-12-26T13:16:45;98025.16;;;7.84;77.50
70921;BME280;58572;48.110;19.838;2022-12-26T13:19:17;98018.78;;;8.10;77.07
70921;BME280;58572;48.110;19.838;2022-12-26T13:21:46;97979.19;;;7.89;77.46
70921;BME280;58572;48.110;19.838;2022-12-26T13:24:22;98119.84;;;8.63;78.16
70921;BME280;58572;48.110;19.838;2022-12-26T13:26:56;98084.13;;;8.81;76.12
70921;BME280;58572;48.110;19.838;2022-12-26T13:29:35;98125.69;;;9.17;76.09
70921;BME280;58572;48.110;19.838;2022-12-26T13:32:12;98134.59;;;8.92;77.50
70921;BME280;58572;48.110;19.838;2022-12-26T13:34:42;98141.81;;;8.67;77.59
70921;BME280;58572;48.110;19.838;2022-12-26T13:40:15;98153.84;;;8.01;79.41
70921;BME280;58572;48.110;19.838;2022-12-26T13:42:44;98055.03;;;8.04;78.57